sensor_id;sensor_type;location;lat;lon;timestamp;P1;durP1;ratioP1;P2;durP2;ratioP2
20441;SDS011;10380;52.102;20.614;2022-11-14T00:01:07;15.93;;;10.07;;
20441;SDS011;10380;52.102;20.614;2022-11-14T00:03:35;18.73;;;10.60;;
20441;SDS011;10380;52.102;20.614;2022-11-14T00:06:05;17.77;;;10.43;;
20441;SDS011;10380;52.102;20.614;2022-11-14T00:08:33;17.50;;;10.50;;
20441;SDS011;10380;52.102;20.614;2022-11-14T00:11:01;23.87;;;9.97;;
20441;SDS011;10380;52.102;20.614;2022-11-14T00:13:28;19.63;;;11.30;;
20441;SDS011;10380;52.102;20.614;2022-11-14T00:15:55;17.20;;;11.47;;
20441;SDS011;10380;52.102;20.614;2022-11-14T00:18:22;17.03;;;11.00;;
20441;SDS011;10380;52.102;20.614;2022-11-14T00:20:51;20.00;;;11.30;;
20441;SDS011;10380;52.102;20.614;2022-11-14T00:23:19;16.27;;;10.30;;
20441;SDS011;10380;52.102;20.614;2022-11-14T00:25:47;15.77;;;9.93;;
20441;SDS011;10380;52.102;20.614;2022-11-14T00:28:14;19.27;;;11.23;;
20441;SDS011;10380;52.102;20.614;2022-11-14T00:30:45;18.30;;;11.03;;
20441;SDS011;10380;52.102;20.614;2022-11-14T00:33:15;18.60;;;10.77;;
20441;SDS011;10380;52.102;20.614;2022-11-14T00:35:55;18.43;;;10.13;;
20441;SDS011;10380;52.102;20.614;2022-11-14T00:38:22;14.97;;;9.77;;
20441;SDS011;10380;52.102;20.614;2022-11-14T00:40:49;14.27;;;8.83;;
20441;SDS011;10380;52.102;20.614;2022-11-14T00:43:17;14.17;;;10.00;;
20441;SDS011;10380;52.102;20.614;2022-11-14T00:45:44;15.47;;;9.43;;
20441;SDS011;10380;52.102;20.614;2022-11-14T00:48:14;22.70;;;10.90;;
20441;SDS011;10380;52.102;20.614;2022-11-14T00:50:41;14.53;;;9.83;;
20441;SDS011;10380;52.102;20.614;2022-11-14T00:53:09;14.70;;;9.17;;
20441;SDS011;10380;52.102;20.614;2022-11-14T00:55:35;15.53;;;8.37;;
20441;SDS011;10380;52.102;20.614;2022-11-14T00:58:02;14.43;;;9.17;;
20441;SDS011;10380;52.102;20.614;2022-11-14T01:00:29;13.37;;;8.43;;
20441;SDS011;10380;52.102;20.614;2022-11-14T01:02:57;15.07;;;8.60;;
20441;SDS011;10380;52.102;20.614;2022-11-14T01:05:24;14.13;;;8.57;;
20441;SDS011;10380;52.102;20.614;2022-11-14T01:07:52;12.67;;;7.03;;
20441;SDS011;10380;52.102;20.614;2022-11-14T01:10:19;12.40;;;7.67;;
20441;SDS011;10380;52.102;20.614;2022-11-14T01:12:46;8.27;;;5.40;;
20441;SDS011;10380;52.102;20.614;2022-11-14T01:15:13;9.23;;;5.77;;
20441;SDS011;10380;52.102;20.614;2022-11-14T01:17:40;8.63;;;5.43;;
20441;SDS011;10380;52.102;20.614;2022-11-14T01:20:07;8.10;;;5.53;;
20441;SDS011;10380;52.102;20.614;2022-11-14T01:22:35;6.93;;;4.77;;
20441;SDS011;10380;52.102;20.614;2022-11-14T01:25:01;8.57;;;4.87;;
20441;SDS011;10380;52.102;20.614;2022-11-14T01:27:31;6.60;;;4.13;;
20441;SDS011;10380;52.102;20.614;2022-11-14T01:29:58;8.33;;;4.60;;
20441;SDS011;10380;52.102;20.614;2022-11-14T01:32:26;7.63;;;4.67;;
20441;SDS011;10380;52.102;20.614;2022-11-14T01:34:53;8.93;;;4.17;;
20441;SDS011;10380;52.102;20.614;2022-11-14T01:37:21;6.70;;;4.47;;
20441;SDS011;10380;52.102;20.614;2022-11-14T01:39:49;7.07;;;4.63;;
20441;SDS011;10380;52.102;20.614;2022-11-14T01:42:16;7.00;;;4.60;;
20441;SDS011;10380;52.102;20.614;2022-11-14T01:44:49;6.03;;;4.13;;
20441;SDS011;10380;52.102;20.614;2022-11-14T01:47:19;7.93;;;3.93;;
20441;SDS011;10380;52.102;20.614;2022-11-14T01:49:50;9.90;;;4.37;;
20441;SDS011;10380;52.102;20.614;2022-11-14T01:52:30;7.60;;;4.47;;
20441;SDS011;10380;52.102;20.614;2022-11-14T01:55:02;5.53;;;3.97;;
20441;SDS011;10380;52.102;20.614;2022-11-14T01:57:32;6.53;;;3.83;;
20441;SDS011;10380;52.102;20.614;2022-11-14T02:00:05;7.40;;;4.17;;
20441;SDS011;10380;52.102;20.614;2022-11-14T02:02:34;8.37;;;4.07;;
20441;SDS011;10380;52.102;20.614;2022-11-14T02:05:03;7.93;;;4.03;;
20441;SDS011;10380;52.102;20.614;2022-11-14T02:07:33;8.03;;;4.63;;
20441;SDS011;10380;52.102;20.614;2022-11-14T02:10:05;6.63;;;4.93;;
20441;SDS011;10380;52.102;20.614;2022-11-14T02:12:34;9.87;;;5.10;;
20441;SDS011;10380;52.102;20.614;2022-11-14T02:15:02;8.60;;;4.73;;
20441;SDS011;10380;52.102;20.614;2022-11-14T02:17:30;6.73;;;4.30;;
20441;SDS011;10380;52.102;20.614;2022-11-14T02:22:31;9.33;;;4.83;;
20441;SDS011;10380;52.102;20.614;2022-11-14T02:24:58;8.43;;;4.33;;
20441;SDS011;10380;52.102;20.614;2022-11-14T02:27:25;7.80;;;4.63;;
20441;SDS011;10380;52.102;20.614;2022-11-14T02:29:52;8.50;;;4.70;;
20441;SDS011;10380;52.102;20.614;2022-11-14T02:32:19;7.90;;;4.77;;
20441;SDS011;10380;52.102;20.614;2022-11-14T02:34:45;7.50;;;4.67;;
20441;SDS011;10380;52.102;20.614;2022-11-14T02:37:13;8.00;;;4.43;;
20441;SDS011;10380;52.102;20.614;2022-11-14T02:39:40;7.53;;;4.63;;
20441;SDS011;10380;52.102;20.614;2022-11-14T02:42:07;8.07;;;4.53;;
20441;SDS011;10380;52.102;20.614;2022-11-14T02:44:34;7.70;;;4.53;;
20441;SDS011;10380;52.102;20.614;2022-11-14T02:47:01;7.13;;;4.30;;
20441;SDS011;10380;52.102;20.614;2022-11-14T02:49:28;7.67;;;4.70;;
20441;SDS011;10380;52.102;20.614;2022-11-14T02:51:56;7.17;;;4.37;;
20441;SDS011;10380;52.102;20.614;2022-11-14T02:54:23;6.50;;;3.50;;
20441;SDS011;10380;52.102;20.614;2022-11-14T02:56:50;6.33;;;4.37;;
20441;SDS011;10380;52.102;20.614;2022-11-14T02:59:17;6.07;;;4.40;;
20441;SDS011;10380;52.102;20.614;2022-11-14T03:01:44;7.40;;;4.50;;
20441;SDS011;10380;52.102;20.614;2022-11-14T03:04:11;8.43;;;4.70;;
20441;SDS011;10380;52.102;20.614;2022-11-14T03:06:38;8.33;;;4.37;;
20441;SDS011;10380;52.102;20.614;2022-11-14T03:09:05;6.33;;;4.73;;
20441;SDS011;10380;52.102;20.614;2022-11-14T03:11:33;6.90;;;4.17;;
20441;SDS011;10380;52.102;20.614;2022-11-14T03:14:00;5.33;;;4.17;;
20441;SDS011;10380;52.102;20.614;2022-11-14T03:16:26;4.87;;;4.13;;
20441;SDS011;10380;52.102;20.614;2022-11-14T03:18:54;7.20;;;3.87;;
20441;SDS011;10380;52.102;20.614;2022-11-14T03:21:21;4.10;;;3.70;;
20441;SDS011;10380;52.102;20.614;2022-11-14T03:23:48;5.10;;;3.60;;
20441;SDS011;10380;52.102;20.614;2022-11-14T03:26:15;5.03;;;3.33;;
20441;SDS011;10380;52.102;20.614;2022-11-14T03:28:42;5.27;;;3.37;;
20441;SDS011;10380;52.102;20.614;2022-11-14T03:31:10;5.93;;;3.80;;
20441;SDS011;10380;52.102;20.614;2022-11-14T03:33:38;4.63;;;3.37;;
20441;SDS011;10380;52.102;20.614;2022-11-14T03:36:06;6.73;;;4.07;;
20441;SDS011;10380;52.102;20.614;2022-11-14T03:38:33;6.07;;;3.80;;
20441;SDS011;10380;52.102;20.614;2022-11-14T03:41:01;6.03;;;3.87;;
20441;SDS011;10380;52.102;20.614;2022-11-14T03:43:31;6.43;;;3.70;;
20441;SDS011;10380;52.102;20.614;2022-11-14T03:45:59;4.47;;;3.37;;
20441;SDS011;10380;52.102;20.614;2022-11-14T03:48:28;5.00;;;3.53;;
20441;SDS011;10380;52.102;20.614;2022-11-14T03:50:56;5.17;;;3.37;;
20441;SDS011;10380;52.102;20.614;2022-11-14T03:53:24;6.23;;;2.87;;
20441;SDS011;10380;52.102;20.614;2022-11-14T03:55:51;4.67;;;3.20;;
20441;SDS011;10380;52.102;20.614;2022-11-14T03:58:18;6.13;;;3.07;;
20441;SDS011;10380;52.102;20.614;2022-11-14T04:00:46;4.30;;;3.00;;
20441;SDS011;10380;52.102;20.614;2022-11-14T04:03:13;5.67;;;3.20;;
20441;SDS011;10380;52.102;20.614;2022-11-14T04:05:42;6.07;;;3.43;;
20441;SDS011;10380;52.102;20.614;2022-11-14T04:08:10;4.17;;;3.10;;
20441;SDS011;10380;52.102;20.614;2022-11-14T04:10:37;5.13;;;2.73;;
20441;SDS011;10380;52.102;20.614;2022-11-14T04:13:04;4.40;;;3.10;;
20441;SDS011;10380;52.102;20.614;2022-11-14T04:15:31;6.33;;;3.53;;
20441;SDS011;10380;52.102;20.614;2022-11-14T04:17:58;4.20;;;2.90;;
20441;SDS011;10380;52.102;20.614;2022-11-14T04:20:25;5.80;;;3.20;;
20441;SDS011;10380;52.102;20.614;2022-11-14T04:22:52;4.57;;;3.27;;
20441;SDS011;10380;52.102;20.614;2022-11-14T04:25:20;4.07;;;2.60;;
20441;SDS011;10380;52.102;20.614;2022-11-14T04:27:47;5.20;;;2.97;;
20441;SDS011;10380;52.102;20.614;2022-11-14T04:30:14;4.63;;;3.53;;
20441;SDS011;10380;52.102;20.614;2022-11-14T04:32:43;5.67;;;3.57;;
20441;SDS011;10380;52.102;20.614;2022-11-14T04:35:11;6.87;;;3.77;;
20441;SDS011;10380;52.102;20.614;2022-11-14T04:37:38;4.77;;;3.33;;
20441;SDS011;10380;52.102;20.614;2022-11-14T04:40:06;4.13;;;3.13;;
20441;SDS011;10380;52.102;20.614;2022-11-14T04:42:34;5.17;;;3.53;;
20441;SDS011;10380;52.102;20.614;2022-11-14T04:45:01;5.60;;;3.47;;
20441;SDS011;10380;52.102;20.614;2022-11-14T04:47:29;6.53;;;3.57;;
20441;SDS011;10380;52.102;20.614;2022-11-14T04:49:57;5.17;;;3.57;;
20441;SDS011;10380;52.102;20.614;2022-11-14T04:52:24;4.83;;;3.50;;
20441;SDS011;10380;52.102;20.614;2022-11-14T04:54:52;7.20;;;3.57;;
20441;SDS011;10380;52.102;20.614;2022-11-14T04:57:19;5.03;;;3.70;;
20441;SDS011;10380;52.102;20.614;2022-11-14T04:59:45;5.30;;;3.57;;
20441;SDS011;10380;52.102;20.614;2022-11-14T05:02:12;4.43;;;3.20;;
20441;SDS011;10380;52.102;20.614;2022-11-14T05:04:39;5.03;;;3.70;;
20441;SDS011;10380;52.102;20.614;2022-11-14T05:07:06;5.53;;;3.53;;
20441;SDS011;10380;52.102;20.614;2022-11-14T05:09:33;4.93;;;3.20;;
20441;SDS011;10380;52.102;20.614;2022-11-14T05:12:02;4.70;;;3.67;;
20441;SDS011;10380;52.102;20.614;2022-11-14T05:14:29;5.17;;;3.40;;
20441;SDS011;10380;52.102;20.614;2022-11-14T05:16:57;5.93;;;3.80;;
20441;SDS011;10380;52.102;20.614;2022-11-14T05:19:24;6.00;;;3.53;;
20441;SDS011;10380;52.102;20.614;2022-11-14T05:21:51;9.43;;;5.60;;
20441;SDS011;10380;52.102;20.614;2022-11-14T05:24:18;5.33;;;3.73;;
20441;SDS011;10380;52.102;20.614;2022-11-14T05:26:45;5.43;;;4.60;;
20441;SDS011;10380;52.102;20.614;2022-11-14T05:29:11;5.77;;;3.90;;
20441;SDS011;10380;52.102;20.614;2022-11-14T05:31:39;5.50;;;3.83;;
20441;SDS011;10380;52.102;20.614;2022-11-14T05:34:06;5.77;;;4.20;;
20441;SDS011;10380;52.102;20.614;2022-11-14T05:36:34;5.37;;;3.27;;
20441;SDS011;10380;52.102;20.614;2022-11-14T05:39:02;4.83;;;3.50;;
20441;SDS011;10380;52.102;20.614;2022-11-14T05:41:29;5.77;;;3.80;;
20441;SDS011;10380;52.102;20.614;2022-11-14T05:43:56;4.67;;;3.23;;
20441;SDS011;10380;52.102;20.614;2022-11-14T05:46:23;5.73;;;3.57;;
20441;SDS011;10380;52.102;20.614;2022-11-14T05:48:50;3.80;;;2.87;;
20441;SDS011;10380;52.102;20.614;2022-11-14T05:51:17;4.63;;;3.27;;
20441;SDS011;10380;52.102;20.614;2022-11-14T05:53:44;5.40;;;3.53;;
20441;SDS011;10380;52.102;20.614;2022-11-14T05:56:11;4.90;;;3.90;;
20441;SDS011;10380;52.102;20.614;2022-11-14T05:58:38;5.80;;;3.63;;
20441;SDS011;10380;52.102;20.614;2022-11-14T06:01:07;5.53;;;3.97;;
20441;SDS011;10380;52.102;20.614;2022-11-14T06:03:43;6.13;;;3.97;;
20441;SDS011;10380;52.102;20.614;2022-11-14T06:06:13;4.53;;;3.70;;
20441;SDS011;10380;52.102;20.614;2022-11-14T06:08:42;6.77;;;3.60;;
20441;SDS011;10380;52.102;20.614;2022-11-14T06:11:14;6.40;;;3.73;;
20441;SDS011;10380;52.102;20.614;2022-11-14T06:13:45;4.63;;;3.50;;
20441;SDS011;10380;52.102;20.614;2022-11-14T06:16:13;5.57;;;3.50;;
20441;SDS011;10380;52.102;20.614;2022-11-14T06:18:42;6.57;;;4.10;;
20441;SDS011;10380;52.102;20.614;2022-11-14T06:21:11;6.53;;;3.30;;
20441;SDS011;10380;52.102;20.614;2022-11-14T06:23:40;4.83;;;3.47;;
20441;SDS011;10380;52.102;20.614;2022-11-14T06:26:09;4.83;;;3.37;;
20441;SDS011;10380;52.102;20.614;2022-11-14T06:28:52;5.90;;;3.40;;
20441;SDS011;10380;52.102;20.614;2022-11-14T06:31:19;6.77;;;4.00;;
20441;SDS011;10380;52.102;20.614;2022-11-14T06:33:47;7.23;;;3.63;;
20441;SDS011;10380;52.102;20.614;2022-11-14T06:36:14;6.57;;;4.17;;
20441;SDS011;10380;52.102;20.614;2022-11-14T06:38:41;5.70;;;3.87;;
20441;SDS011;10380;52.102;20.614;2022-11-14T06:41:10;6.03;;;4.07;;
20441;SDS011;10380;52.102;20.614;2022-11-14T06:43:39;5.17;;;3.83;;
20441;SDS011;10380;52.102;20.614;2022-11-14T06:46:09;5.43;;;3.87;;
20441;SDS011;10380;52.102;20.614;2022-11-14T06:48:37;7.13;;;3.73;;
20441;SDS011;10380;52.102;20.614;2022-11-14T06:51:05;7.93;;;4.40;;
20441;SDS011;10380;52.102;20.614;2022-11-14T06:53:33;6.03;;;4.33;;
20441;SDS011;10380;52.102;20.614;2022-11-14T06:56:04;9.60;;;4.90;;
20441;SDS011;10380;52.102;20.614;2022-11-14T06:58:40;7.57;;;4.60;;
20441;SDS011;10380;52.102;20.614;2022-11-14T07:01:12;11.53;;;7.13;;
20441;SDS011;10380;52.102;20.614;2022-11-14T07:03:41;12.27;;;7.90;;
20441;SDS011;10380;52.102;20.614;2022-11-14T07:06:10;10.67;;;5.97;;
20441;SDS011;10380;52.102;20.614;2022-11-14T07:08:39;9.37;;;5.67;;
20441;SDS011;10380;52.102;20.614;2022-11-14T07:11:07;9.43;;;5.00;;
20441;SDS011;10380;52.102;20.614;2022-11-14T07:13:54;6.87;;;4.77;;
20441;SDS011;10380;52.102;20.614;2022-11-14T07:16:26;5.60;;;3.70;;
20441;SDS011;10380;52.102;20.614;2022-11-14T07:18:58;5.97;;;3.90;;
20441;SDS011;10380;52.102;20.614;2022-11-14T07:21:26;4.73;;;3.30;;
20441;SDS011;10380;52.102;20.614;2022-11-14T07:23:55;5.57;;;3.83;;
20441;SDS011;10380;52.102;20.614;2022-11-14T07:26:22;5.63;;;3.83;;
20441;SDS011;10380;52.102;20.614;2022-11-14T07:28:50;6.03;;;4.13;;
20441;SDS011;10380;52.102;20.614;2022-11-14T07:31:21;6.50;;;3.97;;
20441;SDS011;10380;52.102;20.614;2022-11-14T07:33:48;7.23;;;4.30;;
20441;SDS011;10380;52.102;20.614;2022-11-14T07:36:15;6.93;;;4.23;;
20441;SDS011;10380;52.102;20.614;2022-11-14T07:38:43;7.67;;;4.20;;
20441;SDS011;10380;52.102;20.614;2022-11-14T07:41:10;5.30;;;3.80;;
20441;SDS011;10380;52.102;20.614;2022-11-14T07:43:39;5.40;;;3.53;;
20441;SDS011;10380;52.102;20.614;2022-11-14T07:46:11;10.17;;;4.43;;
20441;SDS011;10380;52.102;20.614;2022-11-14T07:48:40;6.73;;;4.13;;
20441;SDS011;10380;52.102;20.614;2022-11-14T07:51:18;7.33;;;3.97;;
20441;SDS011;10380;52.102;20.614;2022-11-14T07:53:45;4.53;;;3.77;;
20441;SDS011;10380;52.102;20.614;2022-11-14T07:56:13;6.50;;;4.50;;
20441;SDS011;10380;52.102;20.614;2022-11-14T07:58:42;7.33;;;3.63;;
20441;SDS011;10380;52.102;20.614;2022-11-14T08:01:10;6.00;;;3.90;;
20441;SDS011;10380;52.102;20.614;2022-11-14T08:03:38;5.03;;;3.93;;
20441;SDS011;10380;52.102;20.614;2022-11-14T08:06:12;5.10;;;4.13;;
20441;SDS011;10380;52.102;20.614;2022-11-14T08:08:40;4.50;;;3.13;;
20441;SDS011;10380;52.102;20.614;2022-11-14T08:11:07;5.23;;;3.77;;
20441;SDS011;10380;52.102;20.614;2022-11-14T08:13:35;4.63;;;2.83;;
20441;SDS011;10380;52.102;20.614;2022-11-14T08:16:08;6.03;;;3.77;;
20441;SDS011;10380;52.102;20.614;2022-11-14T08:18:39;4.83;;;3.13;;
20441;SDS011;10380;52.102;20.614;2022-11-14T08:21:06;3.57;;;2.53;;
20441;SDS011;10380;52.102;20.614;2022-11-14T08:23:33;4.40;;;3.13;;
20441;SDS011;10380;52.102;20.614;2022-11-14T08:26:00;4.93;;;3.47;;
20441;SDS011;10380;52.102;20.614;2022-11-14T08:28:27;7.20;;;3.07;;
20441;SDS011;10380;52.102;20.614;2022-11-14T08:30:58;5.80;;;3.30;;
20441;SDS011;10380;52.102;20.614;2022-11-14T08:33:26;4.73;;;3.27;;
20441;SDS011;10380;52.102;20.614;2022-11-14T08:35:54;5.90;;;4.03;;
20441;SDS011;10380;52.102;20.614;2022-11-14T08:38:20;4.83;;;3.23;;
20441;SDS011;10380;52.102;20.614;2022-11-14T08:40:47;9.23;;;4.17;;
20441;SDS011;10380;52.102;20.614;2022-11-14T08:43:14;5.97;;;3.87;;
20441;SDS011;10380;52.102;20.614;2022-11-14T08:45:41;6.47;;;3.77;;
20441;SDS011;10380;52.102;20.614;2022-11-14T08:48:08;5.47;;;2.93;;
20441;SDS011;10380;52.102;20.614;2022-11-14T08:50:35;6.13;;;2.87;;
20441;SDS011;10380;52.102;20.614;2022-11-14T08:53:02;4.80;;;2.70;;
20441;SDS011;10380;52.102;20.614;2022-11-14T08:55:29;6.23;;;3.23;;
20441;SDS011;10380;52.102;20.614;2022-11-14T08:57:56;5.03;;;2.93;;
20441;SDS011;10380;52.102;20.614;2022-11-14T09:00:22;4.73;;;3.30;;
20441;SDS011;10380;52.102;20.614;2022-11-14T09:02:50;5.77;;;3.10;;
20441;SDS011;10380;52.102;20.614;2022-11-14T09:05:17;5.30;;;3.43;;
20441;SDS011;10380;52.102;20.614;2022-11-14T09:07:43;6.83;;;3.47;;
20441;SDS011;10380;52.102;20.614;2022-11-14T09:10:10;6.23;;;3.57;;
20441;SDS011;10380;52.102;20.614;2022-11-14T09:12:37;7.60;;;3.30;;
20441;SDS011;10380;52.102;20.614;2022-11-14T09:15:05;5.20;;;3.37;;
20441;SDS011;10380;52.102;20.614;2022-11-14T09:17:33;4.23;;;3.07;;
20441;SDS011;10380;52.102;20.614;2022-11-14T09:20:00;3.77;;;2.87;;
20441;SDS011;10380;52.102;20.614;2022-11-14T09:22:27;6.33;;;3.00;;
20441;SDS011;10380;52.102;20.614;2022-11-14T09:24:54;5.57;;;3.50;;
20441;SDS011;10380;52.102;20.614;2022-11-14T09:27:22;5.63;;;3.17;;
20441;SDS011;10380;52.102;20.614;2022-11-14T09:29:52;5.67;;;3.90;;
20441;SDS011;10380;52.102;20.614;2022-11-14T09:32:19;7.67;;;4.27;;
20441;SDS011;10380;52.102;20.614;2022-11-14T09:34:46;7.80;;;4.37;;
20441;SDS011;10380;52.102;20.614;2022-11-14T09:37:13;7.27;;;4.57;;
20441;SDS011;10380;52.102;20.614;2022-11-14T09:39:40;8.47;;;5.47;;
20441;SDS011;10380;52.102;20.614;2022-11-14T09:44:53;11.43;;;5.27;;
20441;SDS011;10380;52.102;20.614;2022-11-14T09:47:31;7.50;;;4.43;;
20441;SDS011;10380;52.102;20.614;2022-11-14T09:50:06;7.43;;;4.70;;
20441;SDS011;10380;52.102;20.614;2022-11-14T09:52:39;8.87;;;4.53;;
20441;SDS011;10380;52.102;20.614;2022-11-14T09:55:16;10.10;;;4.47;;
20441;SDS011;10380;52.102;20.614;2022-11-14T09:57:46;7.27;;;4.80;;
20441;SDS011;10380;52.102;20.614;2022-11-14T10:00:14;9.80;;;5.20;;
20441;SDS011;10380;52.102;20.614;2022-11-14T10:19:10;10.43;;;6.70;;
20441;SDS011;10380;52.102;20.614;2022-11-14T10:21:20;13.33;;;7.77;;
20441;SDS011;10380;52.102;20.614;2022-11-14T10:24:03;14.40;;;7.20;;
20441;SDS011;10380;52.102;20.614;2022-11-14T10:26:35;13.53;;;8.57;;
20441;SDS011;10380;52.102;20.614;2022-11-14T10:29:22;20.80;;;12.73;;
20441;SDS011;10380;52.102;20.614;2022-11-14T10:35:22;13.80;;;8.77;;
20441;SDS011;10380;52.102;20.614;2022-11-14T10:38:03;17.40;;;10.67;;
20441;SDS011;10380;52.102;20.614;2022-11-14T10:40:37;16.33;;;8.97;;
20441;SDS011;10380;52.102;20.614;2022-11-14T10:43:20;15.00;;;9.30;;
20441;SDS011;10380;52.102;20.614;2022-11-14T10:46:18;14.47;;;8.97;;
20441;SDS011;10380;52.102;20.614;2022-11-14T10:48:48;14.00;;;9.27;;
20441;SDS011;10380;52.102;20.614;2022-11-14T10:56:47;19.43;;;11.43;;
20441;SDS011;10380;52.102;20.614;2022-11-14T10:59:19;17.87;;;11.43;;
20441;SDS011;10380;52.102;20.614;2022-11-14T11:06:48;24.17;;;14.47;;
20441;SDS011;10380;52.102;20.614;2022-11-14T11:09:20;23.30;;;14.83;;
20441;SDS011;10380;52.102;20.614;2022-11-14T11:12:17;22.70;;;13.00;;
20441;SDS011;10380;52.102;20.614;2022-11-14T11:14:47;23.43;;;14.97;;
20441;SDS011;10380;52.102;20.614;2022-11-14T11:17:17;22.57;;;14.60;;
20441;SDS011;10380;52.102;20.614;2022-11-14T11:19:46;27.53;;;15.90;;
20441;SDS011;10380;52.102;20.614;2022-11-14T11:22:24;26.40;;;14.63;;
20441;SDS011;10380;52.102;20.614;2022-11-14T11:24:52;24.50;;;15.23;;
20441;SDS011;10380;52.102;20.614;2022-11-14T11:32:48;27.87;;;16.30;;
20441;SDS011;10380;52.102;20.614;2022-11-14T11:35:16;30.43;;;15.93;;
20441;SDS011;10380;52.102;20.614;2022-11-14T11:40:25;20.33;;;12.50;;
20441;SDS011;10380;52.102;20.614;2022-11-14T11:42:56;21.70;;;12.97;;
20441;SDS011;10380;52.102;20.614;2022-11-14T11:45:49;20.70;;;12.43;;
20441;SDS011;10380;52.102;20.614;2022-11-14T11:48:18;19.07;;;11.93;;
20441;SDS011;10380;52.102;20.614;2022-11-14T11:50:47;21.73;;;12.80;;
20441;SDS011;10380;52.102;20.614;2022-11-14T11:53:16;21.57;;;12.43;;
20441;SDS011;10380;52.102;20.614;2022-11-14T11:55:52;25.57;;;13.60;;
20441;SDS011;10380;52.102;20.614;2022-11-14T12:00:57;21.47;;;12.80;;
20441;SDS011;10380;52.102;20.614;2022-11-14T12:03:24;18.17;;;11.40;;
20441;SDS011;10380;52.102;20.614;2022-11-14T12:08:56;16.60;;;11.63;;
20441;SDS011;10380;52.102;20.614;2022-11-14T12:11:51;14.53;;;10.63;;
20441;SDS011;10380;52.102;20.614;2022-11-14T12:29:03;18.87;;;13.20;;
20441;SDS011;10380;52.102;20.614;2022-11-14T12:31:37;17.97;;;11.73;;
20441;SDS011;10380;52.102;20.614;2022-11-14T12:34:27;17.63;;;12.70;;
20441;SDS011;10380;52.102;20.614;2022-11-14T12:36:56;19.10;;;12.70;;
20441;SDS011;10380;52.102;20.614;2022-11-14T12:39:29;22.50;;;13.80;;
20441;SDS011;10380;52.102;20.614;2022-11-14T12:42:03;19.70;;;12.97;;
20441;SDS011;10380;52.102;20.614;2022-11-14T12:44:36;19.10;;;12.57;;
20441;SDS011;10380;52.102;20.614;2022-11-14T12:52:41;16.77;;;11.27;;
20441;SDS011;10380;52.102;20.614;2022-11-14T13:00:56;17.20;;;12.13;;
20441;SDS011;10380;52.102;20.614;2022-11-14T13:12:16;19.43;;;12.97;;
20441;SDS011;10380;52.102;20.614;2022-11-14T13:18:17;28.57;;;17.17;;
20441;SDS011;10380;52.102;20.614;2022-11-14T13:24:20;28.70;;;19.80;;
20441;SDS011;10380;52.102;20.614;2022-11-14T13:26:50;24.23;;;17.40;;
20441;SDS011;10380;52.102;20.614;2022-11-14T13:32:11;29.80;;;17.60;;
20441;SDS011;10380;52.102;20.614;2022-11-14T13:52:29;27.87;;;17.50;;
20441;SDS011;10380;52.102;20.614;2022-11-14T13:54:58;28.63;;;16.50;;
20441;SDS011;10380;52.102;20.614;2022-11-14T14:00:18;29.00;;;17.23;;
20441;SDS011;10380;52.102;20.614;2022-11-14T14:08:48;31.10;;;17.90;;
20441;SDS011;10380;52.102;20.614;2022-11-14T14:11:31;27.40;;;16.37;;
20441;SDS011;10380;52.102;20.614;2022-11-14T14:14:27;29.77;;;18.03;;
20441;SDS011;10380;52.102;20.614;2022-11-14T14:22:55;29.60;;;18.00;;
20441;SDS011;10380;52.102;20.614;2022-11-14T14:31:14;30.60;;;18.00;;
20441;SDS011;10380;52.102;20.614;2022-11-14T14:33:43;29.63;;;17.63;;
20441;SDS011;10380;52.102;20.614;2022-11-14T14:36:18;35.30;;;18.80;;
20441;SDS011;10380;52.102;20.614;2022-11-14T14:39:06;31.13;;;17.73;;
20441;SDS011;10380;52.102;20.614;2022-11-14T14:41:43;32.23;;;18.77;;
20441;SDS011;10380;52.102;20.614;2022-11-14T14:44:33;32.67;;;19.67;;
20441;SDS011;10380;52.102;20.614;2022-11-14T14:47:26;31.33;;;19.17;;
20441;SDS011;10380;52.102;20.614;2022-11-14T14:49:56;31.40;;;18.30;;
20441;SDS011;10380;52.102;20.614;2022-11-14T14:55:01;34.63;;;19.47;;
20441;SDS011;10380;52.102;20.614;2022-11-14T14:57:31;32.50;;;19.23;;
20441;SDS011;10380;52.102;20.614;2022-11-14T15:02:27;34.20;;;20.50;;
20441;SDS011;10380;52.102;20.614;2022-11-14T15:04:55;33.03;;;18.27;;
20441;SDS011;10380;52.102;20.614;2022-11-14T15:07:25;31.97;;;19.03;;
20441;SDS011;10380;52.102;20.614;2022-11-14T15:09:58;29.87;;;17.40;;
20441;SDS011;10380;52.102;20.614;2022-11-14T15:12:28;32.50;;;17.80;;
20441;SDS011;10380;52.102;20.614;2022-11-14T15:14:56;39.37;;;19.57;;
20441;SDS011;10380;52.102;20.614;2022-11-14T15:17:24;31.13;;;18.17;;
20441;SDS011;10380;52.102;20.614;2022-11-14T15:19:54;27.80;;;14.93;;
20441;SDS011;10380;52.102;20.614;2022-11-14T15:22:22;26.77;;;16.97;;
20441;SDS011;10380;52.102;20.614;2022-11-14T15:27:53;29.53;;;18.00;;
20441;SDS011;10380;52.102;20.614;2022-11-14T15:30:25;26.77;;;15.83;;
20441;SDS011;10380;52.102;20.614;2022-11-14T15:32:57;27.20;;;18.33;;
20441;SDS011;10380;52.102;20.614;2022-11-14T15:35:30;31.00;;;16.73;;
20441;SDS011;10380;52.102;20.614;2022-11-14T15:38:02;27.47;;;17.33;;
20441;SDS011;10380;52.102;20.614;2022-11-14T15:48:59;26.57;;;15.53;;
20441;SDS011;10380;52.102;20.614;2022-11-14T15:51:37;24.87;;;15.43;;
20441;SDS011;10380;52.102;20.614;2022-11-14T15:56:49;30.60;;;16.37;;
20441;SDS011;10380;52.102;20.614;2022-11-14T15:59:17;32.00;;;18.67;;
20441;SDS011;10380;52.102;20.614;2022-11-14T16:01:45;32.67;;;19.07;;
20441;SDS011;10380;52.102;20.614;2022-11-14T16:04:19;29.57;;;17.47;;
20441;SDS011;10380;52.102;20.614;2022-11-14T16:06:48;30.23;;;16.73;;
20441;SDS011;10380;52.102;20.614;2022-11-14T16:09:16;30.47;;;16.80;;
20441;SDS011;10380;52.102;20.614;2022-11-14T16:11:46;25.77;;;15.87;;
20441;SDS011;10380;52.102;20.614;2022-11-14T16:14:14;32.30;;;15.67;;
20441;SDS011;10380;52.102;20.614;2022-11-14T16:16:41;27.07;;;16.87;;
20441;SDS011;10380;52.102;20.614;2022-11-14T16:19:10;25.90;;;15.53;;
20441;SDS011;10380;52.102;20.614;2022-11-14T16:21:40;24.97;;;14.60;;
20441;SDS011;10380;52.102;20.614;2022-11-14T16:24:12;26.03;;;15.70;;
20441;SDS011;10380;52.102;20.614;2022-11-14T16:26:42;27.77;;;15.43;;
20441;SDS011;10380;52.102;20.614;2022-11-14T16:29:09;27.70;;;13.87;;
20441;SDS011;10380;52.102;20.614;2022-11-14T16:31:36;28.13;;;15.73;;
20441;SDS011;10380;52.102;20.614;2022-11-14T16:34:04;31.63;;;16.47;;
20441;SDS011;10380;52.102;20.614;2022-11-14T16:36:31;26.80;;;15.83;;
20441;SDS011;10380;52.102;20.614;2022-11-14T16:38:59;31.40;;;16.57;;
20441;SDS011;10380;52.102;20.614;2022-11-14T16:41:28;25.23;;;14.50;;
20441;SDS011;10380;52.102;20.614;2022-11-14T16:43:55;30.90;;;16.50;;
20441;SDS011;10380;52.102;20.614;2022-11-14T16:46:23;30.47;;;15.60;;
20441;SDS011;10380;52.102;20.614;2022-11-14T16:48:50;25.30;;;15.50;;
20441;SDS011;10380;52.102;20.614;2022-11-14T16:51:17;27.87;;;15.27;;
20441;SDS011;10380;52.102;20.614;2022-11-14T16:54:04;27.50;;;15.97;;
20441;SDS011;10380;52.102;20.614;2022-11-14T16:56:32;26.33;;;14.50;;
20441;SDS011;10380;52.102;20.614;2022-11-14T16:58:59;22.80;;;13.67;;
20441;SDS011;10380;52.102;20.614;2022-11-14T17:01:26;27.00;;;15.53;;
20441;SDS011;10380;52.102;20.614;2022-11-14T17:03:55;25.50;;;14.87;;
20441;SDS011;10380;52.102;20.614;2022-11-14T17:06:25;29.37;;;15.80;;
20441;SDS011;10380;52.102;20.614;2022-11-14T17:08:55;25.90;;;16.10;;
20441;SDS011;10380;52.102;20.614;2022-11-14T17:11:23;27.17;;;17.00;;